Time;durP1;ratioP1;P1;durP2;ratioP2;P2;SDS_P1;SDS_P2;PMS_P1;PMS_P2;Temp;Humidity;BMP_temperature;BMP_pressure;BME280_temperature;BME280_humidity;BME280_pressure;Samples;Min_cycle;Max_cycle;Signal;HPM_P1;HPM_P2
2023/09/09 00:00:33;;;;;;;10.60;10.00;;;23.60;53.40;;;;;;20544;6871;122148;-72
2023/09/09 00:02:58;;;;;;;10.00;9.30;;;23.40;53.40;;;;;;20558;6871;118095;-72
2023/09/09 00:05:24;;;;;;;11.18;10.38;;;23.20;53.80;;;;;;20357;6871;280290;-72
2023/09/09 00:07:50;;;;;;;11.27;10.48;;;23.30;53.60;;;;;;20323;6871;327621;-70
2023/09/09 00:10:15;;;;;;;11.30;10.60;;;23.60;53.10;;;;;;20368;6871;309627;-72
2023/09/09 00:12:41;;;;;;;11.17;10.40;;;23.70;52.70;;;;;;20533;6871;118663;-71
2023/09/09 00:15:07;;;;;;;10.67;9.93;;;23.70;52.70;;;;;;20559;6870;117506;-72
2023/09/09 00:17:33;;;;;;;10.40;9.50;;;23.10;53.60;;;;;;20527;6871;117872;-72
2023/09/09 00:19:59;;;;;;;12.18;11.30;;;23.00;53.50;;;;;;20313;6871;338374;-72
2023/09/09 00:22:24;;;;;;;12.05;11.15;;;23.20;54.10;;;;;;20348;6871;281732;-72
2023/09/09 00:24:50;;;;;;;10.17;9.50;;;23.50;53.70;;;;;;20556;6871;122050;-71
2023/09/09 00:27:15;;;;;;;11.93;11.10;;;23.40;53.60;;;;;;20346;6871;309528;-72
2023/09/09 00:29:42;;;;;;;12.07;11.20;;;23.60;53.00;;;;;;20354;6871;279558;-72
2023/09/09 00:32:07;;;;;;;11.23;10.43;;;23.60;53.00;;;;;;20328;6871;280385;-72
2023/09/09 00:34:33;;;;;;;11.03;10.13;;;23.80;52.90;;;;;;20483;6871;118482;-72
2023/09/09 00:36:59;;;;;;;11.73;10.83;;;23.60;53.10;;;;;;20330;6871;281304;-70
2023/09/09 00:39:24;;;;;;;11.77;11.07;;;23.50;52.90;;;;;;20300;6871;339483;-72
2023/09/09 00:41:50;;;;;;;10.07;9.40;;;23.70;52.70;;;;;;20474;6871;121817;-72
2023/09/09 00:44:16;;;;;;;10.27;9.63;;;23.00;53.50;;;;;;20534;6871;120791;-70
2023/09/09 00:46:42;;;;;;;10.20;9.50;;;23.00;53.50;;;;;;20531;6871;118030;-71
2023/09/09 00:49:08;;;;;;;11.25;10.45;;;22.70;54.00;;;;;;20312;6871;332823;-70
2023/09/09 00:51:34;;;;;;;9.13;8.63;;;22.90;54.30;;;;;;20511;6871;117687;-71
2023/09/09 00:53:59;;;;;;;11.00;10.30;;;22.80;54.20;;;;;;20303;6871;310475;-72
2023/09/09 00:56:25;;;;;;;11.10;10.20;;;23.00;54.00;;;;;;20347;6871;285327;-72
2023/09/09 00:58:50;;;;;;;10.63;9.93;;;23.30;53.80;;;;;;20342;6871;316893;-71
2023/09/09 01:01:17;;;;;;;11.20;10.40;;;23.70;53.10;;;;;;20341;6871;308946;-72
2023/09/09 01:03:42;;;;;;;11.30;10.47;;;23.70;52.70;;;;;;20330;6871;316547;-72
2023/09/09 01:06:08;;;;;;;11.50;10.60;;;23.90;52.60;;;;;;20345;6871;288291;-71
2023/09/09 01:08:34;;;;;;;10.67;9.90;;;23.90;52.80;;;;;;20578;6871;118197;-72
2023/09/09 01:10:59;;;;;;;10.88;10.18;;;23.60;52.50;;;;;;20361;6871;315018;-72
2023/09/09 01:13:25;;;;;;;11.55;10.75;;;23.70;52.70;;;;;;20352;6871;308031;-71
2023/09/09 01:15:51;;;;;;;10.80;10.17;;;23.70;52.40;;;;;;20524;6871;118254;-72
2023/09/09 01:18:17;;;;;;;11.50;10.80;;;23.40;52.60;;;;;;20335;6871;344672;-70
2023/09/09 01:20:43;;;;;;;10.57;9.80;;;23.40;53.10;;;;;;20548;6871;117772;-71
2023/09/09 01:23:09;;;;;;;11.85;10.95;;;23.20;53.30;;;;;;20324;6871;307933;-71
2023/09/09 01:25:34;;;;;;;11.00;10.20;;;23.10;53.30;;;;;;20347;6869;316533;-72
2023/09/09 01:28:00;;;;;;;11.17;10.37;;;23.40;53.00;;;;;;20325;6870;309235;-72
2023/09/09 01:30:25;;;;;;;10.63;9.88;;;23.50;52.90;;;;;;20351;6871;324670;-70
2023/09/09 01:32:51;;;;;;;9.63;8.93;;;23.60;52.40;;;;;;20559;6871;117735;-72
2023/09/09 01:35:16;;;;;;;10.10;8.90;;;23.30;52.80;;;;;;20559;6871;117992;-72
2023/09/09 01:37:43;;;;;;;9.87;9.07;;;22.50;54.00;;;;;;20557;6871;118643;-71
2023/09/09 01:40:12;;;;;;;10.83;10.10;;;22.50;54.00;;;;;;20325;6871;338813;-71
2023/09/09 01:42:35;;;;;;;10.50;9.60;;;22.90;54.00;;;;;;20311;6871;279338;-72
2023/09/09 01:45:00;;;;;;;10.90;10.00;;;22.90;54.00;;;;;;20341;6871;309840;-71
2023/09/09 01:47:26;;;;;;;9.77;9.17;;;23.10;53.40;;;;;;20553;6871;117672;-71
2023/09/09 01:49:51;;;;;;;10.52;9.93;;;22.90;53.50;;;;;;20315;6871;308352;-72
2023/09/09 01:52:17;;;;;;;9.80;9.13;;;22.90;53.80;;;;;;20553;6871;120363;-70
2023/09/09 01:54:43;;;;;;;10.10;9.20;;;22.70;53.90;;;;;;20547;6871;118768;-71
2023/09/09 01:57:08;;;;;;;10.57;9.70;;;22.40;54.40;;;;;;20342;6871;308730;-72
2023/09/09 01:59:34;;;;;;;10.33;9.37;;;22.40;54.70;;;;;;20549;6871;117448;-70
2023/09/09 02:02:00;;;;;;;10.88;9.98;;;22.30;54.60;;;;;;20316;6871;346169;-71
2023/09/09 02:04:26;;;;;;;11.23;10.53;;;22.40;54.70;;;;;;20281;6889;280203;-72
2023/09/09 02:06:52;;;;;;;9.80;9.20;;;22.50;55.30;;;;;;20473;6896;117842;-72
2023/09/09 02:09:18;;;;;;;10.90;10.13;;;22.50;54.80;;;;;;20259;6893;308811;-72
2023/09/09 02:11:44;;;;;;;11.80;11.00;;;22.50;54.80;;;;;;20262;6893;308361;-72
2023/09/09 02:14:10;;;;;;;10.00;9.30;;;22.40;54.40;;;;;;20445;6895;122771;-72
2023/09/09 02:16:36;;;;;;;10.52;9.90;;;22.40;54.70;;;;;;20275;6895;308999;-72
2023/09/09 02:19:02;;;;;;;10.30;9.50;;;22.40;54.70;;;;;;20432;6909;118963;-72
2023/09/09 02:21:28;;;;;;;11.83;11.03;;;22.30;55.00;;;;;;20286;6895;309086;-70
2023/09/09 02:23:54;;;;;;;11.37;10.67;;;22.60;54.30;;;;;;20228;6900;308994;-71
2023/09/09 02:26:20;;;;;;;11.25;10.48;;;22.80;54.10;;;;;;20218;6913;349418;-71
2023/09/09 02:28:46;;;;;;;10.73;9.83;;;22.70;54.00;;;;;;20430;6913;118627;-70
2023/09/09 02:31:11;;;;;;;11.77;10.98;;;22.50;54.20;;;;;;20218;6913;343351;-72
2023/09/09 02:33:37;;;;;;;10.37;9.67;;;22.60;54.50;;;;;;20452;6900;118353;-71
2023/09/09 02:36:03;;;;;;;10.10;9.50;;;22.40;54.70;;;;;;20424;6908;119449;-71
2023/09/09 02:38:28;;;;;;;11.17;10.50;;;22.10;55.20;;;;;;20280;6890;317729;-71
2023/09/09 02:40:55;;;;;;;13.60;12.50;;;22.40;55.40;;;;;;20285;6891;346916;-70
2023/09/09 02:43:20;;;;;;;12.03;11.23;;;22.40;55.40;;;;;;20485;6891;119147;-71
2023/09/09 02:45:46;;;;;;;13.50;12.60;;;22.30;55.30;;;;;;20288;6891;279020;-70
2023/09/09 02:48:11;;;;;;;13.40;12.50;;;22.40;55.50;;;;;;20267;6891;294549;-71
2023/09/09 02:50:37;;;;;;;14.50;13.50;;;22.70;54.80;;;;;;20284;6891;280458;-71
2023/09/09 02:53:03;;;;;;;14.23;13.30;;;22.70;54.70;;;;;;20277;6891;309243;-70
2023/09/09 02:55:30;;;;;;;12.57;11.57;;;22.90;54.60;;;;;;20498;6892;120629;-71
2023/09/09 02:57:56;;;;;;;12.23;11.23;;;22.60;54.90;;;;;;20475;6892;118208;-71
2023/09/09 03:00:21;;;;;;;13.67;12.77;;;22.20;55.40;;;;;;20288;6892;338134;-71
2023/09/09 03:02:49;;;;;;;14.07;12.97;;;22.30;55.50;;;;;;20281;6892;287431;-71
2023/09/09 03:05:12;;;;;;;12.03;11.23;;;22.40;55.80;;;;;;20507;6892;118724;-70
2023/09/09 03:07:38;;;;;;;13.55;12.65;;;22.30;55.30;;;;;;20317;6892;289845;-69
2023/09/09 03:10:05;;;;;;;14.55;13.32;;;22.50;55.30;;;;;;20268;6891;311174;-70
2023/09/09 03:12:31;;;;;;;13.87;12.67;;;22.40;55.20;;;;;;20485;6892;118912;-70
2023/09/09 03:14:56;;;;;;;14.77;13.77;;;22.30;55.50;;;;;;20281;6892;288115;-71
2023/09/09 03:17:21;;;;;;;14.60;13.43;;;22.30;55.70;;;;;;20265;6892;315750;-71
2023/09/09 03:19:47;;;;;;;14.83;13.80;;;22.50;55.70;;;;;;20282;6892;279940;-71
2023/09/09 03:22:13;;;;;;;13.68;12.55;;;22.60;55.50;;;;;;20345;6892;121926;-71
2023/09/09 03:24:38;;;;;;;13.93;12.63;;;22.40;55.40;;;;;;20495;6892;119227;-71
2023/09/09 03:27:04;;;;;;;16.13;14.70;;;22.10;56.50;;;;;;20269;6892;312447;-71
2023/09/09 03:29:30;;;;;;;15.02;13.93;;;22.10;56.50;;;;;;20274;6892;314019;-71
2023/09/09 03:31:56;;;;;;;14.93;13.90;;;22.40;56.30;;;;;;20254;6892;309232;-71
2023/09/09 03:34:21;;;;;;;14.67;13.77;;;22.60;55.60;;;;;;20272;6892;308919;-71
2023/09/09 03:36:47;;;;;;;14.80;13.80;;;22.80;55.20;;;;;;20279;6892;280331;-70
2023/09/09 03:39:12;;;;;;;13.50;12.60;;;22.90;54.90;;;;;;20278;6892;345824;-71
2023/09/09 03:41:39;;;;;;;14.10;13.00;;;23.00;54.40;;;;;;20267;6892;280604;-71
2023/09/09 03:44:04;;;;;;;14.53;13.57;;;23.00;54.40;;;;;;20262;6892;309478;-71
2023/09/09 03:46:30;;;;;;;13.17;12.27;;;23.00;54.10;;;;;;20279;6892;338569;-70
2023/09/09 03:48:55;;;;;;;12.83;11.93;;;23.10;54.30;;;;;;20497;6890;118719;-72
2023/09/09 03:51:22;;;;;;;12.70;11.57;;;22.30;55.40;;;;;;20491;6891;117983;-72
2023/09/09 03:53:48;;;;;;;13.75;12.90;;;22.30;55.30;;;;;;20275;6891;308931;-71
2023/09/09 03:56:14;;;;;;;13.57;12.68;;;22.40;54.90;;;;;;20151;6891;345679;-71
2023/09/09 03:58:40;;;;;;;12.73;11.60;;;22.40;54.90;;;;;;20484;6891;117543;-71
2023/09/09 04:01:05;;;;;;;15.27;14.17;;;22.20;55.10;;;;;;20279;6892;288807;-70
2023/09/09 04:03:33;;;;;;;15.37;14.03;;;22.20;55.50;;;;;;20269;6892;320076;-71
2023/09/09 04:05:57;;;;;;;14.70;13.60;;;22.30;55.40;;;;;;20481;6892;117806;-70
2023/09/09 04:08:22;;;;;;;15.37;14.20;;;22.10;55.70;;;;;;20290;6892;308993;-71
2023/09/09 04:10:48;;;;;;;15.03;13.73;;;22.10;56.10;;;;;;20507;6892;117985;-70
2023/09/09 04:13:13;;;;;;;13.40;12.43;;;22.00;56.30;;;;;;20498;6892;119130;-70
2023/09/09 04:15:40;;;;;;;15.40;14.30;;;21.70;56.70;;;;;;20286;6892;308986;-70
2023/09/09 04:18:05;;;;;;;13.97;12.87;;;21.70;56.80;;;;;;20487;6892;118972;-71
2023/09/09 04:20:31;;;;;;;14.10;12.70;;;21.70;56.90;;;;;;20495;6892;124369;-70
2023/09/09 04:22:56;;;;;;;15.60;14.47;;;21.50;57.10;;;;;;20283;6892;280072;-71
2023/09/09 04:25:22;;;;;;;13.93;12.97;;;21.60;57.00;;;;;;20417;6892;118923;-72
2023/09/09 04:27:48;;;;;;;15.63;14.50;;;21.60;57.00;;;;;;20269;6892;309478;-72
2023/09/09 04:30:21;;;;;;;13.80;12.73;;;21.70;57.10;;;;;;20489;6892;68602;-69
2023/09/09 04:32:46;;;;;;;13.37;12.23;;;21.60;57.10;;;;;;20479;6892;68204;-73
2023/09/09 04:35:12;;;;;;;12.80;11.90;;;21.30;57.40;;;;;;20490;6892;119704;-72
2023/09/09 04:37:38;;;;;;;14.37;13.37;;;21.20;57.80;;;;;;20282;6892;310268;-75
2023/09/09 04:40:05;;;;;;;13.93;12.87;;;21.30;57.80;;;;;;20465;6892;120420;-75
2023/09/09 04:42:29;;;;;;;13.83;12.57;;;21.30;57.70;;;;;;20476;6892;118200;-76
2023/09/09 04:44:55;;;;;;;14.97;13.70;;;21.40;57.70;;;;;;20279;6892;293650;-76
2023/09/09 04:47:21;;;;;;;15.23;14.03;;;21.40;57.70;;;;;;20271;6892;280907;-76
2023/09/09 04:49:46;;;;;;;14.80;13.70;;;21.70;57.30;;;;;;20269;6892;347417;-75
2023/09/09 04:52:14;;;;;;;14.57;13.67;;;21.90;56.60;;;;;;20269;6892;287559;-75
2023/09/09 04:54:39;;;;;;;13.33;12.33;;;22.10;56.00;;;;;;20480;6892;118015;-75
2023/09/09 04:57:05;;;;;;;13.97;13.03;;;21.80;56.20;;;;;;20046;6892;308920;-72
2023/09/09 04:59:30;;;;;;;14.90;13.80;;;21.80;56.30;;;;;;20271;6892;331302;-74
2023/09/09 05:01:56;;;;;;;14.43;13.50;;;22.00;56.10;;;;;;20223;6890;280305;-74
2023/09/09 05:04:21;;;;;;;14.20;13.20;;;22.20;55.60;;;;;;20261;6891;308539;-73
2023/09/09 05:06:47;;;;;;;13.70;12.57;;;22.30;55.40;;;;;;20444;6891;118124;-74
2023/09/09 05:09:13;;;;;;;14.83;13.73;;;22.00;55.70;;;;;;20242;6891;308904;-75
2023/09/09 05:11:38;;;;;;;15.63;14.37;;;22.00;55.90;;;;;;20259;6892;288663;-77
2023/09/09 05:14:04;;;;;;;15.17;14.07;;;22.20;55.70;;;;;;20245;6892;303989;-76
2023/09/09 05:16:29;;;;;;;15.20;14.00;;;22.30;55.40;;;;;;20227;6892;283520;-74
2023/09/09 05:18:56;;;;;;;14.40;13.40;;;22.50;56.00;;;;;;20156;6892;316501;-75
2023/09/09 05:21:21;;;;;;;13.17;12.23;;;22.50;55.30;;;;;;20376;6892;118113;-74
2023/09/09 05:23:47;;;;;;;14.77;13.88;;;22.20;55.60;;;;;;20163;6892;308928;-74
2023/09/09 05:26:12;;;;;;;15.25;14.15;;;22.20;55.60;;;;;;20239;6892;281521;-73
2023/09/09 05:28:38;;;;;;;15.18;14.07;;;22.40;55.60;;;;;;20242;6892;308470;-73
2023/09/09 05:31:07;;;;;;;13.73;12.73;;;22.50;55.30;;;;;;20444;6892;120064;-74
2023/09/09 05:33:33;;;;;;;15.50;14.40;;;22.30;55.60;;;;;;20244;6892;288750;-73
2023/09/09 05:35:58;;;;;;;14.87;13.87;;;22.30;55.80;;;;;;20211;6892;313455;-74
2023/09/09 05:38:26;;;;;;;13.67;12.70;;;22.40;55.70;;;;;;20443;6892;117790;-74
2023/09/09 05:40:49;;;;;;;14.63;13.52;;;22.30;56.00;;;;;;20179;6892;279454;-74
2023/09/09 05:43:15;;;;;;;14.93;13.73;;;22.30;56.30;;;;;;20216;6892;301578;-74
2023/09/09 05:45:41;;;;;;;13.20;11.93;;;22.50;56.10;;;;;;20492;6892;67555;-74
2023/09/09 05:48:07;;;;;;;14.33;13.23;;;22.40;56.50;;;;;;20233;6892;279616;-73
2023/09/09 05:50:32;;;;;;;12.60;11.70;;;22.40;56.50;;;;;;20482;6892;119030;-74
2023/09/09 05:52:58;;;;;;;13.95;12.93;;;22.30;56.60;;;;;;20304;6892;311136;-73
2023/09/09 05:55:24;;;;;;;14.27;13.27;;;22.40;56.80;;;;;;20263;6892;304556;-74
2023/09/09 05:57:49;;;;;;;13.23;12.15;;;22.60;56.50;;;;;;20460;6892;120137;-73
2023/09/09 06:00:15;;;;;;;12.10;11.20;;;22.50;56.60;;;;;;20486;6892;118590;-74
2023/09/09 06:02:41;;;;;;;13.30;12.40;;;22.40;57.40;;;;;;20253;6892;279798;-74
2023/09/09 06:05:07;;;;;;;12.23;11.43;;;22.40;57.40;;;;;;20493;6892;118124;-74
2023/09/09 06:07:34;;;;;;;13.30;12.30;;;22.50;57.70;;;;;;20266;6892;279331;-74
2023/09/09 06:10:00;;;;;;;13.57;12.68;;;22.80;57.10;;;;;;20280;6892;308479;-74
2023/09/09 06:12:25;;;;;;;12.47;11.20;;;23.30;56.20;;;;;;20497;6890;122284;-74
2023/09/09 06:14:51;;;;;;;13.30;12.30;;;23.40;56.20;;;;;;20294;6891;280760;-75
2023/09/09 06:17:16;;;;;;;13.07;12.18;;;23.70;55.40;;;;;;20294;6891;327772;-74
2023/09/09 06:19:43;;;;;;;11.18;10.40;;;24.00;54.80;;;;;;20511;6891;119536;-74
2023/09/09 06:22:09;;;;;;;11.23;10.37;;;24.10;54.90;;;;;;20482;6891;118596;-76
2023/09/09 06:24:35;;;;;;;11.83;11.07;;;23.90;55.10;;;;;;19963;6894;282705;-73
2023/09/09 06:27:01;;;;;;;12.10;11.20;;;24.10;54.70;;;;;;20236;6879;314226;-74
2023/09/09 06:29:30;;;;;;;12.20;11.20;;;24.40;54.20;;;;;;20485;6879;124068;-74
2023/09/09 06:31:55;;;;;;;11.47;10.57;;;24.50;54.30;;;;;;20475;6879;118711;-75
2023/09/09 06:34:21;;;;;;;12.68;11.73;;;24.30;54.50;;;;;;20292;6879;347880;-75
2023/09/09 06:36:46;;;;;;;11.43;10.73;;;24.50;54.30;;;;;;20513;6879;118820;-74
2023/09/09 06:39:12;;;;;;;11.13;10.37;;;24.50;54.30;;;;;;20519;6877;124061;-75
2023/09/09 06:41:38;;;;;;;12.20;11.30;;;24.40;54.50;;;;;;20323;6877;316475;-75
2023/09/09 06:44:05;;;;;;;12.23;11.27;;;24.60;53.60;;;;;;20432;6877;118984;-75
2023/09/09 06:46:30;;;;;;;12.33;11.63;;;24.70;53.50;;;;;;20205;6887;284514;-75
2023/09/09 06:48:56;;;;;;;12.45;11.73;;;25.00;53.10;;;;;;20263;6887;309291;-75
2023/09/09 06:51:21;;;;;;;11.07;10.43;;;25.30;52.50;;;;;;20497;6888;119411;-77
2023/09/09 06:53:47;;;;;;;12.90;12.00;;;25.30;52.50;;;;;;20255;6888;308967;-74
2023/09/09 06:56:13;;;;;;;11.77;10.77;;;25.40;52.10;;;;;;20481;6897;118021;-74
2023/09/09 06:58:39;;;;;;;11.87;11.07;;;25.40;52.10;;;;;;20285;6883;309744;-74
2023/09/09 07:01:06;;;;;;;11.57;10.68;;;25.60;51.90;;;;;;20328;6872;298928;-75
2023/09/09 07:03:30;;;;;;;11.10;10.10;;;26.00;51.30;;;;;;20546;6872;118172;-75
2023/09/09 07:05:56;;;;;;;10.20;9.47;;;25.90;51.40;;;;;;20499;6872;122478;-74
2023/09/09 07:08:21;;;;;;;10.65;9.95;;;25.80;51.90;;;;;;20181;6868;299182;-74
2023/09/09 07:10:48;;;;;;;10.43;9.63;;;26.10;51.60;;;;;;20469;6868;121320;-74
2023/09/09 07:13:13;;;;;;;10.33;9.43;;;26.10;51.60;;;;;;20445;6868;121123;-75
2023/09/09 07:15:39;;;;;;;11.17;10.17;;;26.00;51.60;;;;;;20178;6868;347397;-75
2023/09/09 07:18:04;;;;;;;10.17;9.10;;;26.30;51.50;;;;;;20356;6898;120115;-75
2023/09/09 07:20:32;;;;;;;11.37;10.60;;;26.40;52.00;;;;;;20170;6871;318899;-75
2023/09/09 07:22:58;;;;;;;10.10;9.37;;;26.70;50.30;;;;;;20280;6880;122132;-74
2023/09/09 07:25:23;;;;;;;10.43;9.57;;;26.90;50.60;;;;;;20377;6882;121532;-74
2023/09/09 07:27:49;;;;;;;10.35;9.60;;;26.80;50.70;;;;;;20352;6877;120605;-75
2023/09/09 07:30:15;;;;;;;12.67;11.37;;;26.80;50.80;;;;;;20457;6877;117620;-75
2023/09/09 07:32:40;;;;;;;18.13;14.13;;;26.80;50.80;;;;;;20457;6878;118654;-74
2023/09/09 07:35:06;;;;;;;9.97;9.23;;;26.80;50.80;;;;;;20469;6878;118021;-75
2023/09/09 07:37:33;;;;;;;11.77;10.80;;;26.80;50.90;;;;;;20247;6878;320668;-75
2023/09/09 07:39:59;;;;;;;11.40;10.60;;;27.20;49.40;;;;;;20468;6878;117589;-74
2023/09/09 07:42:24;;;;;;;10.27;9.57;;;27.50;49.40;;;;;;20442;6898;118057;-75
2023/09/09 07:44:51;;;;;;;11.10;10.20;;;27.50;49.40;;;;;;20475;6891;118163;-75
2023/09/09 07:47:16;;;;;;;9.93;9.23;;;27.50;49.40;;;;;;20517;6877;115169;-75
2023/09/09 07:49:42;;;;;;;10.43;9.57;;;27.60;49.50;;;;;;20292;6877;309684;-75
2023/09/09 07:52:07;;;;;;;9.70;8.90;;;27.90;48.30;;;;;;20454;6883;122202;-75
2023/09/09 07:54:33;;;;;;;10.75;9.98;;;28.10;48.20;;;;;;20302;6883;278437;-75
2023/09/09 07:56:58;;;;;;;10.07;9.27;;;28.50;47.20;;;;;;20500;6883;118138;-75
2023/09/09 07:59:24;;;;;;;10.03;9.03;;;28.60;47.30;;;;;;20515;6883;120441;-75
2023/09/09 08:01:50;;;;;;;10.10;9.40;;;28.50;47.40;;;;;;20261;6883;308085;-75
2023/09/09 08:04:15;;;;;;;10.13;9.48;;;28.80;47.10;;;;;;20505;6883;119834;-75
2023/09/09 08:06:41;;;;;;;10.90;10.20;;;28.90;47.20;;;;;;20290;6883;308426;-75
2023/09/09 08:09:06;;;;;;;10.80;10.10;;;29.20;45.90;;;;;;20303;6883;287130;-75
2023/09/09 08:11:33;;;;;;;11.00;10.30;;;29.90;45.20;;;;;;20294;6883;309329;-75
2023/09/09 08:13:58;;;;;;;10.10;9.38;;;29.90;45.30;;;;;;20259;6883;308795;-74
2023/09/09 08:16:24;;;;;;;10.00;9.30;;;30.20;44.70;;;;;;20464;6897;118524;-75
2023/09/09 08:18:49;;;;;;;10.98;10.10;;;30.10;44.70;;;;;;20255;6897;318469;-75
2023/09/09 08:21:15;;;;;;;10.20;9.30;;;30.20;43.90;;;;;;20462;6897;118237;-75
2023/09/09 08:23:41;;;;;;;10.38;9.68;;;30.10;44.30;;;;;;20262;6897;309149;-75
2023/09/09 08:26:07;;;;;;;9.83;9.03;;;30.30;44.90;;;;;;20469;6888;118343;-74
2023/09/09 08:28:33;;;;;;;10.27;9.40;;;30.30;44.40;;;;;;20487;6888;118584;-75
2023/09/09 08:31:02;;;;;;;10.07;9.30;;;30.10;44.80;;;;;;20233;6899;310258;-75
2023/09/09 08:33:27;;;;;;;10.15;9.48;;;30.40;44.10;;;;;;20216;6902;318237;-75
2023/09/09 08:35:53;;;;;;;9.50;9.00;;;30.70;44.10;;;;;;20427;6900;124015;-75
2023/09/09 08:38:18;;;;;;;9.70;9.10;;;30.70;44.30;;;;;;20474;6891;118397;-75
2023/09/09 08:40:55;;;;;;;10.23;9.63;;;30.80;43.60;;;;;;20286;6893;307571;-75
2023/09/09 08:43:24;;;;;;;9.20;8.70;;;30.90;43.60;;;;;;20465;6893;121435;-75
2023/09/09 08:46:03;;;;;;;10.47;9.40;;;30.90;43.80;;;;;;20429;6893;120377;-75
2023/09/09 08:48:28;;;;;;;9.80;9.20;;;30.80;44.70;;;;;;20454;6893;117661;-75
2023/09/09 08:50:54;;;;;;;10.13;9.43;;;30.70;44.20;;;;;;20477;6893;118676;-75
2023/09/09 08:53:19;;;;;;;10.33;9.63;;;30.70;44.20;;;;;;20478;6893;118119;-75
2023/09/09 08:55:46;;;;;;;10.60;9.80;;;30.60;44.40;;;;;;20480;6893;121080;-75
2023/09/09 08:58:10;;;;;;;9.60;8.73;;;30.60;44.50;;;;;;20258;6893;279576;-74
2023/09/09 09:00:40;;;;;;;9.80;9.10;;;31.40;43.50;;;;;;20253;6893;279533;-75
2023/09/09 09:03:05;;;;;;;9.80;9.17;;;31.40;43.50;;;;;;20273;6893;283160;-75
2023/09/09 09:05:31;;;;;;;9.80;9.30;;;31.90;43.10;;;;;;20275;6893;280503;-75
2023/09/09 09:07:56;;;;;;;9.43;8.83;;;32.20;42.20;;;;;;20234;6893;310567;-75
2023/09/09 09:10:22;;;;;;;9.23;8.40;;;32.50;41.10;;;;;;20463;6893;117816;-75
2023/09/09 09:12:48;;;;;;;9.27;8.77;;;32.40;41.40;;;;;;20462;6893;120023;-75
2023/09/09 09:15:13;;;;;;;9.50;8.80;;;32.20;42.00;;;;;;20470;6893;122154;-75
2023/09/09 09:17:40;;;;;;;9.00;8.40;;;32.10;42.50;;;;;;20464;6893;119092;-75
2023/09/09 09:20:07;;;;;;;9.23;8.70;;;32.00;42.90;;;;;;20420;6893;119904;-75
2023/09/09 09:22:31;;;;;;;9.70;8.80;;;32.00;42.80;;;;;;20458;6893;120571;-75
2023/09/09 09:24:56;;;;;;;10.07;9.17;;;32.00;42.80;;;;;;20254;6893;280004;-75
2023/09/09 09:27:22;;;;;;;9.13;8.63;;;32.20;42.80;;;;;;20471;6893;121775;-75
2023/09/09 09:29:48;;;;;;;9.77;9.07;;;32.30;42.70;;;;;;20261;6893;338821;-77
2023/09/09 09:32:15;;;;;;;9.57;8.77;;;32.50;42.60;;;;;;20071;6891;284546;-75
2023/09/09 09:34:39;;;;;;;9.20;8.60;;;32.90;41.20;;;;;;20259;6892;287214;-75
2023/09/09 09:37:08;;;;;;;9.98;9.35;;;33.20;40.80;;;;;;20203;6910;285213;-75
2023/09/09 09:39:33;;;;;;;9.48;8.68;;;33.50;40.20;;;;;;20272;6877;308783;-75
2023/09/09 09:41:58;;;;;;;9.00;8.30;;;33.70;40.00;;;;;;20521;6876;117677;-75
2023/09/09 09:44:24;;;;;;;8.87;8.37;;;33.60;40.20;;;;;;20289;6891;279882;-76
2023/09/09 09:47:08;;;;;;;8.87;8.20;;;33.50;40.40;;;;;;20502;6889;118473;-75
2023/09/09 09:49:48;;;;;;;8.98;8.48;;;33.50;40.30;;;;;;20243;6905;332482;-73
2023/09/09 09:52:12;;;;;;;9.20;8.47;;;33.70;39.80;;;;;;20255;6892;117503;-73
2023/09/09 09:54:47;;;;;;;8.50;7.83;;;33.60;39.70;;;;;;20203;6882;67206;-74
2023/09/09 09:57:12;;;;;;;8.67;8.17;;;33.40;39.50;;;;;;20293;6862;311477;-72
2023/09/09 09:59:39;;;;;;;8.37;7.77;;;33.50;39.70;;;;;;20453;6892;117708;-75
2023/09/09 10:02:04;;;;;;;8.37;7.77;;;33.50;39.70;;;;;;20458;6887;123484;-75
2023/09/09 10:04:38;;;;;;;8.10;7.60;;;33.70;40.50;;;;;;20270;6893;309574;-75
2023/09/09 10:07:03;;;;;;;8.10;7.57;;;33.70;40.20;;;;;;20257;6891;308637;-76
2023/09/09 10:09:45;;;;;;;7.13;6.63;;;34.10;38.30;;;;;;20488;6891;122155;-76
2023/09/09 10:12:11;;;;;;;8.33;7.90;;;34.10;37.90;;;;;;20412;6906;119475;-77
2023/09/09 10:14:36;;;;;;;7.57;6.93;;;34.00;38.80;;;;;;20455;6891;117700;-74
2023/09/09 10:17:02;;;;;;;7.87;7.47;;;33.90;38.90;;;;;;20180;6896;339168;-75
2023/09/09 10:19:27;;;;;;;7.57;7.17;;;34.10;37.90;;;;;;20299;6876;316199;-75
2023/09/09 10:21:53;;;;;;;8.47;7.80;;;34.50;37.10;;;;;;20197;6891;309087;-75
2023/09/09 10:24:19;;;;;;;7.75;7.20;;;34.70;36.20;;;;;;20142;6891;312104;-76
2023/09/09 10:26:44;;;;;;;7.90;7.40;;;35.00;36.90;;;;;;20171;6891;282808;-75
2023/09/09 10:29:10;;;;;;;8.00;7.50;;;35.20;36.10;;;;;;20124;6906;309153;-76
2023/09/09 10:31:35;;;;;;;7.87;7.37;;;35.30;35.90;;;;;;20387;6891;117723;-75
2023/09/09 10:34:01;;;;;;;7.78;7.37;;;35.20;36.10;;;;;;20169;6891;305620;-75
2023/09/09 10:36:26;;;;;;;7.72;7.22;;;35.10;36.10;;;;;;20191;6891;292991;-75
2023/09/09 10:38:56;;;;;;;7.85;7.25;;;35.20;36.30;;;;;;20439;6891;117892;-75
2023/09/09 10:41:21;;;;;;;8.10;7.50;;;35.20;36.30;;;;;;20290;6891;290837;-74
2023/09/09 10:43:47;;;;;;;8.50;7.83;;;35.30;35.40;;;;;;20499;6891;117264;-75
2023/09/09 10:46:13;;;;;;;8.20;7.50;;;35.10;35.80;;;;;;20239;6896;316534;-76
2023/09/09 10:48:38;;;;;;;8.20;7.60;;;35.10;35.70;;;;;;20322;6876;325715;-75
2023/09/09 10:51:04;;;;;;;7.87;7.20;;;35.20;35.70;;;;;;20491;6891;121462;-76
2023/09/09 10:53:29;;;;;;;7.57;7.07;;;35.10;35.90;;;;;;20492;6891;121006;-76
2023/09/09 10:56:01;;;;;;;7.47;6.97;;;34.80;36.30;;;;;;20230;6906;309633;-76
2023/09/09 10:58:33;;;;;;;7.73;7.23;;;34.80;35.30;;;;;;20235;6889;309328;-73
2023/09/09 11:00:59;;;;;;;7.78;7.10;;;34.90;35.20;;;;;;20212;6895;291533;-76
2023/09/09 11:03:26;;;;;;;7.10;6.60;;;35.10;34.40;;;;;;20321;6876;317272;-76
2023/09/09 11:05:59;;;;;;;7.37;6.57;;;35.10;34.40;;;;;;20395;6891;118693;-76
2023/09/09 11:08:29;;;;;;;6.43;5.97;;;34.60;34.80;;;;;;20442;6905;118159;-76
2023/09/09 11:11:14;;;;;;;6.43;5.85;;;34.60;34.80;;;;;;20266;6891;346265;-76
2023/09/09 11:13:49;;;;;;;6.53;5.77;;;34.60;34.60;;;;;;20489;6891;118611;-74
2023/09/09 11:16:25;;;;;;;8.73;6.30;;;34.60;34.90;;;;;;20468;6891;118098;-76
2023/09/09 11:18:54;;;;;;;6.62;6.00;;;34.50;35.40;;;;;;20097;6902;340129;-75
2023/09/09 11:21:23;;;;;;;6.43;6.03;;;34.70;34.50;;;;;;20443;6897;117931;-75
2023/09/09 11:23:48;;;;;;;6.33;5.80;;;34.70;35.00;;;;;;20488;6887;117558;-79
2023/09/09 11:26:14;;;;;;;6.53;5.97;;;34.70;35.00;;;;;;20298;6887;298549;-76
2023/09/09 11:28:39;;;;;;;7.40;6.20;;;34.80;34.10;;;;;;20497;6887;121583;-72
2023/09/09 11:31:05;;;;;;;8.57;6.40;;;34.70;34.20;;;;;;20438;6905;120326;-76
2023/09/09 11:33:32;;;;;;;6.70;6.30;;;34.50;34.40;;;;;;20233;6898;338715;-76
2023/09/09 11:35:57;;;;;;;6.40;5.90;;;34.60;34.30;;;;;;20268;6878;347492;-75
2023/09/09 11:38:24;;;;;;;6.23;5.83;;;34.80;34.50;;;;;;20559;6866;122277;-73
2023/09/09 11:40:49;;;;;;;7.53;5.93;;;34.80;34.40;;;;;;20523;6888;117408;-73
2023/09/09 11:43:15;;;;;;;8.23;6.30;;;34.60;34.50;;;;;;20517;6892;118309;-74
2023/09/09 11:45:40;;;;;;;6.73;6.13;;;34.50;34.80;;;;;;20271;6888;295297;-74
2023/09/09 11:48:06;;;;;;;6.67;6.17;;;34.50;34.30;;;;;;20236;6892;315463;-74
2023/09/09 11:50:45;;;;;;;6.27;5.77;;;34.80;33.80;;;;;;20267;6888;307937;-74
2023/09/09 11:53:11;;;;;;;6.30;5.77;;;35.00;34.00;;;;;;20272;6888;279701;-75
2023/09/09 11:55:36;;;;;;;6.78;6.18;;;35.20;34.10;;;;;;20263;6892;309137;-73
2023/09/09 11:58:01;;;;;;;7.10;6.40;;;35.30;33.30;;;;;;20252;6878;312065;-73
2023/09/09 12:00:27;;;;;;;6.67;6.07;;;35.40;33.20;;;;;;20468;6878;117464;-73
2023/09/09 12:02:53;;;;;;;6.17;5.57;;;34.80;33.20;;;;;;20485;6888;117378;-72
2023/09/09 12:05:19;;;;;;;6.53;5.93;;;34.80;33.60;;;;;;20300;6888;284108;-73
2023/09/09 12:07:44;;;;;;;6.80;6.20;;;34.80;33.90;;;;;;20288;6888;347745;-73
2023/09/09 12:10:14;;;;;;;6.47;5.90;;;34.90;33.50;;;;;;20201;6885;319939;-71
2023/09/09 12:12:42;;;;;;;6.63;6.10;;;35.00;33.30;;;;;;20265;6887;288943;-72
2023/09/09 12:15:08;;;;;;;6.40;5.70;;;34.90;33.30;;;;;;20448;6890;117525;-73
2023/09/09 12:17:35;;;;;;;6.57;5.97;;;34.90;33.50;;;;;;20245;6894;338674;-73
2023/09/09 12:20:00;;;;;;;6.03;5.62;;;34.90;33.50;;;;;;19956;6865;282972;-72